Terminal Aerodrome Forecast
Issued by NWS

Home | Current Version | Previous Version | Text Only | Print | Product List | Glossary On
Versions: 1 2 3 4 5 6 7 8 9 10 11 12 13 14 15 16 17 18 19 20 21 22 23 24 25 26 27 28 29 30 31 32 33 34 35 36 37 38 39 40 41 42 43 44 45 46 47 48 49 50
361
FTUS42 KMFL 231506 AAB
TAFFXE
TAF AMD
KFXE 231506Z 2315/2412 15012KT P6SM SHRA VCTS SCT025CB
      TEMPO 2315/2317 3SM BR BKN010
     FM231700 14012KT P6SM VCTS SCT025CB BKN060
     FM240000 15006KT P6SM VCTS FEW025CB BKN050 BKN100
     FM240600 17004KT P6SM VCSH FEW030 SCT050=

USA.gov is the U.S. government's official web portal to all federal, state and local government web resources and services.